Time;durP1;ratioP1;P1;durP2;ratioP2;P2;SDS_P1;SDS_P2;PMS_P1;PMS_P2;Temp;Humidity;BMP_temperature;BMP_pressure;BME280_temperature;BME280_humidity;BME280_pressure;Samples;Min_cycle;Max_cycle;Signal;HPM_P1;HPM_P2
2022/01/17 00:00:31;;;;;;;;;10.00;9.00;;;;;21.36;50.79;100271.56;113079;1242;19446;-69
2022/01/17 00:03:10;;;;;;;;;13.33;9.00;;;;;21.37;50.97;100270.77;113043;1242;18529;-70
2022/01/17 00:05:36;;;;;;;;;8.00;8.00;;;;;21.38;50.83;100268.86;113083;1242;22220;-69
2022/01/17 00:08:02;;;;;;;;;9.00;9.00;;;;;21.38;50.81;100264.66;113031;1242;19342;-69
2022/01/17 00:10:28;;;;;;;;;10.00;8.50;;;;;21.34;50.74;100248.89;113078;1242;18748;-71
2022/01/17 00:12:57;;;;;;;;;11.00;9.00;;;;;21.36;50.78;100248.66;113051;1242;22498;-69
2022/01/17 00:15:28;;;;;;;;;8.67;8.67;;;;;21.36;50.81;100241.76;113085;1242;20201;-71
2022/01/17 00:18:20;;;;;;;;;8.00;8.00;;;;;21.35;50.80;100234.61;113052;1241;20118;-70
2022/01/17 00:20:44;;;;;;;;;6.00;6.00;;;;;21.34;50.78;100226.70;113009;1242;18636;-68
2022/01/17 00:23:10;;;;;;;;;12.50;10.00;;;;;21.34;50.61;100223.44;113017;1242;21475;-68
2022/01/17 00:25:36;;;;;;;;;13.00;9.00;;;;;21.34;50.55;100217.77;113037;1241;18709;-68
2022/01/17 00:28:02;;;;;;;;;9.00;8.00;;;;;21.35;50.70;100215.90;113008;1241;18500;-68
2022/01/17 00:30:28;;;;;;;;;11.00;9.00;;;;;21.36;50.73;100208.58;113039;1241;19060;-68
2022/01/17 00:32:54;;;;;;;;;8.00;8.00;;;;;21.34;50.86;100210.35;113044;1242;19816;-67
2022/01/17 00:35:21;;;;;;;;;9.50;8.00;;;;;21.34;50.67;100200.95;113096;1242;19051;-68
2022/01/17 00:37:48;;;;;;;;;9.67;9.00;;;;;21.33;50.66;100201.23;113086;1241;19653;-69
2022/01/17 00:40:14;;;;;;;;;10.00;9.00;;;;;21.33;50.61;100196.67;113089;1242;18973;-69
2022/01/17 00:42:40;;;;;;;;;8.00;7.00;;;;;21.33;50.52;100187.06;113155;1241;18445;-69
2022/01/17 00:45:07;;;;;;;;;6.00;6.00;;;;;21.33;50.51;100180.01;113127;1242;19358;-69
2022/01/17 00:47:33;;;;;;;;;9.00;8.00;;;;;21.32;50.56;100176.27;113081;1242;20436;-68
2022/01/17 00:49:59;;;;;;;;;9.00;8.00;;;;;21.33;50.70;100168.02;113098;1241;18559;-68
2022/01/17 00:52:25;;;;;;;;;8.00;8.00;;;;;21.33;50.59;100166.93;113135;1242;19849;-68
2022/01/17 00:54:51;;;;;;;;;9.00;8.00;;;;;21.33;50.73;100170.96;113185;1242;18257;-68
2022/01/17 00:57:17;;;;;;;;;9.00;8.00;;;;;21.32;50.61;100165.00;113154;1241;19876;-68
2022/01/17 00:59:43;;;;;;;;;8.00;7.00;;;;;21.33;50.53;100162.19;113113;1242;19455;-68
2022/01/17 01:02:09;;;;;;;;;10.00;9.00;;;;;21.33;50.40;100157.66;113016;1241;18416;-69
2022/01/17 01:04:35;;;;;;;;;8.00;8.00;;;;;21.33;50.52;100151.91;113082;1242;20095;-69
2022/01/17 01:07:00;;;;;;;;;8.00;8.00;;;;;21.29;50.36;100147.26;113159;1242;19844;-67
2022/01/17 01:09:32;;;;;;;;;7.00;6.00;;;;;21.32;50.52;100154.13;113098;1242;18972;-68
2022/01/17 01:11:58;;;;;;;;;6.00;6.00;;;;;21.32;50.38;100147.42;113020;1242;19415;-68
2022/01/17 01:14:24;;;;;;;;;9.00;8.00;;;;;21.31;50.47;100157.48;113062;1242;20376;-68
2022/01/17 01:16:52;;;;;;;;;6.00;6.00;;;;;21.31;50.54;100156.57;113108;1242;18638;-68
2022/01/17 01:30:25;;;;;;;;;8.00;8.00;;;;;21.30;50.30;100139.08;112950;1242;22205;-68
2022/01/17 01:32:54;;;;;;;;;8.00;8.00;;;;;21.30;50.43;100122.43;113059;1242;21121;-68
2022/01/17 01:35:22;;;;;;;;;6.00;6.00;;;;;21.29;50.27;100122.64;113015;1241;23217;-68
2022/01/17 01:37:49;;;;;;;;;10.00;9.67;;;;;21.30;50.41;100126.61;113047;1242;21520;-69
2022/01/17 01:40:16;;;;;;;;;6.00;6.00;;;;;21.30;50.39;100117.35;113094;1242;21065;-68
2022/01/17 01:42:42;;;;;;;;;8.00;6.00;;;;;21.29;50.25;100112.89;113164;1242;21817;-68
2022/01/17 01:45:08;;;;;;;;;6.00;6.00;;;;;21.29;50.20;100109.03;113051;1242;19235;-68
2022/01/17 01:47:34;;;;;;;;;7.00;6.00;;;;;21.29;50.36;100100.14;113021;1242;21577;-68
2022/01/17 01:50:00;;;;;;;;;8.00;8.00;;;;;21.29;50.30;100096.53;113005;1241;18417;-68
2022/01/17 01:52:26;;;;;;;;;8.00;8.00;;;;;21.29;50.09;100093.41;113155;1242;19611;-70
2022/01/17 01:54:52;;;;;;;;;7.00;6.00;;;;;21.30;50.34;100089.05;113121;1241;18300;-70
2022/01/17 01:57:18;;;;;;;;;6.00;6.00;;;;;21.29;50.15;100081.10;113098;1242;19028;-68
2022/01/17 01:59:44;;;;;;;;;8.67;6.00;;;;;21.29;50.19;100081.12;113125;1242;20800;-69
2022/01/17 02:02:10;;;;;;;;;5.50;5.00;;;;;21.28;50.27;100078.15;113098;1242;18574;-69
2022/01/17 02:04:36;;;;;;;;;8.00;7.00;;;;;21.27;50.30;100065.82;113058;1242;18380;-68
2022/01/17 02:07:01;;;;;;;;;5.00;5.00;;;;;21.27;50.32;100061.88;113098;1241;22026;-67
2022/01/17 02:09:27;;;;;;;;;7.00;6.00;;;;;21.28;50.33;100058.00;113051;1242;18442;-69
2022/01/17 02:11:53;;;;;;;;;9.00;8.00;;;;;21.27;50.05;100048.77;113106;1242;18884;-69
2022/01/17 02:14:20;;;;;;;;;5.00;5.00;;;;;21.28;50.17;100042.34;113128;1241;19932;-69
2022/01/17 02:16:49;;;;;;;;;8.00;7.00;;;;;21.28;50.27;100035.77;113128;1242;18434;-68
2022/01/17 02:19:18;;;;;;;;;5.33;5.00;;;;;21.27;50.07;100029.39;113079;1242;20221;-69
2022/01/17 02:21:47;;;;;;;;;8.00;6.67;;;;;21.26;50.20;100023.64;113039;1242;19696;-69
2022/01/17 02:24:14;;;;;;;;;8.00;8.00;;;;;21.26;50.02;100023.85;113051;1242;18430;-69
2022/01/17 02:26:40;;;;;;;;;8.50;8.00;;;;;21.26;50.09;100018.73;113046;1241;20190;-68
2022/01/17 02:29:06;;;;;;;;;8.50;8.00;;;;;21.27;50.14;100017.23;113066;1242;19909;-67
2022/01/17 02:31:32;;;;;;;;;6.00;6.00;;;;;21.26;49.86;100010.77;113068;1242;21827;-67
2022/01/17 02:33:58;;;;;;;;;6.50;5.50;;;;;21.26;50.03;100001.45;113086;1241;20005;-67
2022/01/17 02:36:24;;;;;;;;;8.00;7.00;;;;;21.26;49.96;99990.60;113061;1242;19145;-70
2022/01/17 02:38:50;;;;;;;;;9.00;8.00;;;;;21.26;50.08;99985.73;113059;1242;23029;-69
2022/01/17 02:41:15;;;;;;;;;8.00;8.00;;;;;21.23;49.89;99976.28;113033;1241;19232;-69
2022/01/17 02:43:42;;;;;;;;;5.00;5.00;;;;;21.25;50.00;99986.33;113138;1242;19569;-69
2022/01/17 02:46:26;;;;;;;;;6.00;5.50;;;;;21.25;49.93;99994.33;113125;1241;19013;-69
2022/01/17 02:48:52;;;;;;;;;5.00;5.00;;;;;21.23;49.90;99992.42;113064;1240;19560;-68
2022/01/17 02:51:18;;;;;;;;;8.00;8.00;;;;;21.24;49.89;100005.93;113057;1242;19727;-68
2022/01/17 02:53:44;;;;;;;;;6.00;6.00;;;;;21.26;50.04;100013.19;113072;1242;18316;-68
2022/01/17 02:56:09;;;;;;;;;7.00;6.00;;;;;21.25;49.82;99994.58;113152;1242;19442;-69
2022/01/17 02:58:35;;;;;;;;;5.00;5.00;;;;;21.25;50.00;99989.71;113185;1241;19111;-69
2022/01/17 03:01:01;;;;;;;;;6.00;5.00;;;;;21.25;49.84;99984.23;113161;1242;18632;-67
2022/01/17 03:03:27;;;;;;;;;5.00;5.00;;;;;21.24;49.90;99983.21;113117;1242;20055;-69
2022/01/17 03:05:55;;;;;;;;;5.50;5.50;;;;;21.25;49.98;99976.92;113010;1241;23103;-69
2022/01/17 03:08:21;;;;;;;;;5.33;5.33;;;;;21.26;49.65;99973.58;113032;1242;18377;-69
2022/01/17 03:10:47;;;;;;;;;9.00;6.00;;;;;21.25;49.71;99961.45;113049;1242;18510;-69
2022/01/17 03:13:13;;;;;;;;;4.00;4.00;;;;;21.25;49.85;99948.79;113031;1242;19301;-68
2022/01/17 03:15:39;;;;;;;;;6.00;5.00;;;;;21.25;49.71;99943.56;113065;1241;18351;-69
2022/01/17 03:18:05;;;;;;;;;4.00;4.00;;;;;21.24;49.88;99947.79;113033;1241;18950;-69
2022/01/17 03:20:30;;;;;;;;;5.00;5.00;;;;;21.25;49.63;99939.36;113078;1241;19803;-69
2022/01/17 03:22:56;;;;;;;;;5.00;5.00;;;;;21.24;49.59;99928.58;113102;1242;18984;-68
2022/01/17 03:25:22;;;;;;;;;5.00;5.00;;;;;21.24;49.75;99920.58;113182;1241;19784;-69
2022/01/17 03:27:48;;;;;;;;;6.00;5.00;;;;;21.24;49.80;99909.33;113125;1242;19331;-69
2022/01/17 03:30:14;;;;;;;;;5.00;5.00;;;;;21.24;49.70;99893.36;113131;1242;18701;-69
2022/01/17 03:32:40;;;;;;;;;5.00;5.00;;;;;21.24;49.62;99882.79;113096;1241;22218;-69
2022/01/17 03:35:06;;;;;;;;;8.00;6.00;;;;;21.24;49.80;99879.48;113135;1242;19850;-68
2022/01/17 03:37:31;;;;;;;;;4.00;4.00;;;;;21.23;49.80;99883.21;113129;1242;18204;-68
2022/01/17 03:39:57;;;;;;;;;5.00;5.00;;;;;21.24;49.58;99885.31;113129;1241;19042;-68
2022/01/17 03:42:24;;;;;;;;;5.00;5.00;;;;;21.25;49.59;99885.23;113033;1242;19155;-69
2022/01/17 03:44:50;;;;;;;;;6.00;5.67;;;;;21.23;49.66;99884.92;113028;1242;20526;-68
2022/01/17 03:47:15;;;;;;;;;5.00;5.00;;;;;21.24;49.63;99879.16;113046;1242;18446;-68
2022/01/17 03:49:41;;;;;;;;;6.00;5.00;;;;;21.23;49.43;99872.52;113040;1242;22096;-68
2022/01/17 03:52:07;;;;;;;;;6.00;4.00;;;;;21.23;49.46;99869.41;113062;1242;23298;-68
2022/01/17 03:54:34;;;;;;;;;6.00;5.00;;;;;21.22;49.58;99869.71;113071;1242;19154;-69
2022/01/17 03:56:59;;;;;;;;;5.33;5.00;;;;;21.24;49.43;99871.35;113015;1242;21204;-68
2022/01/17 03:59:25;;;;;;;;;5.00;5.00;;;;;21.23;49.67;99858.42;112913;1242;20881;-68
2022/01/17 04:01:51;;;;;;;;;5.00;5.00;;;;;21.23;49.59;99860.61;113112;1241;18431;-68
2022/01/17 04:04:18;;;;;;;;;4.00;4.00;;;;;21.21;49.41;99857.88;113036;1242;21731;-68
2022/01/17 04:06:44;;;;;;;;;4.50;4.50;;;;;21.22;49.44;99854.40;113032;1242;21873;-68
2022/01/17 04:09:09;;;;;;;;;5.50;5.00;;;;;21.22;49.37;99853.41;113039;1242;18442;-69
2022/01/17 04:11:36;;;;;;;;;4.00;4.00;;;;;21.22;49.43;99839.96;113049;1241;20455;-68
2022/01/17 04:14:02;;;;;;;;;4.33;4.33;;;;;21.21;49.38;99832.84;113130;1242;20433;-68
2022/01/17 04:16:28;;;;;;;;;5.00;5.00;;;;;21.21;49.35;99821.02;113123;1242;19093;-67
2022/01/17 04:18:54;;;;;;;;;4.00;4.00;;;;;21.21;49.47;99816.10;113069;1242;22414;-69
2022/01/17 04:21:20;;;;;;;;;4.00;4.00;;;;;21.21;49.50;99806.84;113035;1242;21952;-70
2022/01/17 04:23:46;;;;;;;;;4.00;4.00;;;;;21.21;49.30;99802.48;113050;1241;20916;-70
2022/01/17 04:26:12;;;;;;;;;6.00;6.00;;;;;21.22;49.14;99806.42;113113;1242;19757;-70
2022/01/17 04:28:38;;;;;;;;;5.00;5.00;;;;;21.21;49.45;99794.67;113134;1242;18245;-70
2022/01/17 04:31:04;;;;;;;;;4.00;4.00;;;;;21.21;49.12;99779.76;113182;1241;18429;-69
2022/01/17 04:33:30;;;;;;;;;5.00;5.00;;;;;21.21;49.27;99766.00;113135;1242;20984;-69
2022/01/17 04:35:56;;;;;;;;;4.00;4.00;;;;;21.21;49.07;99764.16;113024;1242;18207;-68
2022/01/17 04:38:22;;;;;;;;;4.00;4.00;;;;;21.21;49.17;99749.32;113089;1242;18425;-68
2022/01/17 04:40:48;;;;;;;;;5.00;5.00;;;;;21.21;49.21;99751.04;113153;1242;19201;-69
2022/01/17 04:43:18;;;;;;;;;4.67;4.67;;;;;21.21;49.32;99742.83;113077;1242;18577;-68
2022/01/17 04:45:44;;;;;;;;;4.33;4.33;;;;;21.20;49.26;99737.59;113102;1242;22196;-68
2022/01/17 04:48:10;;;;;;;;;5.00;4.50;;;;;21.21;49.21;99744.45;113122;1242;19332;-68
2022/01/17 04:50:36;;;;;;;;;4.00;4.00;;;;;21.20;49.06;99745.58;113073;1242;19954;-70
2022/01/17 04:53:02;;;;;;;;;4.00;4.00;;;;;21.21;49.12;99747.71;113073;1242;19261;-68
2022/01/17 04:55:28;;;;;;;;;5.00;4.00;;;;;21.21;48.97;99744.92;113055;1242;19485;-68
2022/01/17 04:57:56;;;;;;;;;4.00;4.00;;;;;21.21;48.97;99741.52;113055;1241;18772;-70
2022/01/17 05:00:22;;;;;;;;;5.00;4.00;;;;;21.21;48.99;99732.80;113031;1242;23696;-71
2022/01/17 05:02:47;;;;;;;;;4.50;4.50;;;;;21.20;48.98;99732.14;113024;1242;23036;-69
2022/01/17 05:05:13;;;;;;;;;5.00;5.00;;;;;21.20;48.98;99720.52;113072;1241;22865;-69
2022/01/17 05:07:39;;;;;;;;;4.00;4.00;;;;;21.20;49.03;99717.50;113153;1242;18700;-69
2022/01/17 05:10:05;;;;;;;;;5.00;4.00;;;;;21.20;48.88;99721.19;113136;1241;22860;-69
2022/01/17 05:12:31;;;;;;;;;4.00;4.00;;;;;21.19;48.77;99707.52;113135;1242;18306;-69
2022/01/17 05:14:58;;;;;;;;;4.00;4.00;;;;;21.19;48.91;99706.10;113083;1241;21083;-68
2022/01/17 05:17:38;;;;;;;;;4.00;4.00;;;;;21.20;48.99;99691.67;113119;1241;19781;-69
2022/01/17 05:20:04;;;;;;;;;4.33;4.00;;;;;21.19;48.87;99682.29;113097;1242;20124;-69
2022/01/17 05:22:32;;;;;;;;;5.00;4.00;;;;;21.20;48.89;99678.05;113101;1241;18438;-69
2022/01/17 05:24:58;;;;;;;;;4.33;4.00;;;;;21.20;48.80;99664.39;113064;1242;22663;-67
2022/01/17 05:27:23;;;;;;;;;5.00;5.00;;;;;21.19;48.68;99671.05;113039;1242;19806;-68
2022/01/17 05:29:49;;;;;;;;;4.00;4.00;;;;;21.16;48.90;99656.55;113048;1241;19116;-68
2022/01/17 05:32:15;;;;;;;;;4.50;4.00;;;;;21.18;48.79;99643.14;113043;1242;21327;-68
2022/01/17 05:34:41;;;;;;;;;4.00;4.00;;;;;21.17;48.76;99631.14;113156;1242;18661;-69
2022/01/17 05:37:07;;;;;;;;;4.00;4.00;;;;;21.19;48.61;99618.82;113093;1242;20626;-69
2022/01/17 05:39:33;;;;;;;;;4.00;2.00;;;;;21.18;48.58;99603.39;113132;1242;22242;-68
2022/01/17 05:41:59;;;;;;;;;4.00;4.00;;;;;21.19;48.71;99587.59;113143;1241;19214;-68
2022/01/17 05:44:25;;;;;;;;;5.00;5.00;;;;;21.18;48.69;99577.48;113128;1242;18590;-69
2022/01/17 05:46:51;;;;;;;;;2.00;2.00;;;;;21.18;48.72;99567.00;113160;1242;19222;-68
2022/01/17 05:49:16;;;;;;;;;3.00;2.00;;;;;21.18;48.77;99572.91;113045;1241;21381;-70
2022/01/17 05:51:42;;;;;;;;;4.00;4.00;;;;;21.18;48.73;99567.17;113107;1242;18478;-69
2022/01/17 05:54:08;;;;;;;;;4.00;4.00;;;;;21.19;48.64;99560.13;113117;1242;19258;-68
2022/01/17 05:56:34;;;;;;;;;4.00;4.00;;;;;21.18;48.39;99541.48;113053;1242;22095;-67
2022/01/17 05:59:00;;;;;;;;;2.00;2.00;;;;;21.18;48.63;99523.96;113040;1242;19209;-66
2022/01/17 06:01:26;;;;;;;;;4.50;3.00;;;;;21.18;48.64;99522.48;113056;1242;19129;-70
2022/01/17 06:03:52;;;;;;;;;4.00;4.00;;;;;21.17;48.46;99498.59;113122;1242;19385;-68
2022/01/17 06:06:17;;;;;;;;;4.00;2.00;;;;;21.17;48.61;99502.40;113217;1242;19803;-68
2022/01/17 06:08:43;;;;;;;;;2.00;2.00;;;;;21.18;48.44;99492.89;113160;1240;21773;-68
2022/01/17 06:11:09;;;;;;;;;4.00;4.00;;;;;21.16;48.50;99489.66;113169;1242;18680;-68
2022/01/17 06:13:35;;;;;;;;;4.00;4.00;;;;;21.16;48.60;99495.81;113145;1242;18574;-68
2022/01/17 06:16:01;;;;;;;;;3.00;3.00;;;;;21.16;48.53;99488.90;113050;1242;19229;-68
2022/01/17 06:18:27;;;;;;;;;5.00;5.00;;;;;21.17;48.40;99501.55;113019;1242;19991;-68
2022/01/17 06:20:53;;;;;;;;;5.00;4.00;;;;;21.17;48.41;99476.48;113048;1242;18458;-69
2022/01/17 06:23:19;;;;;;;;;4.50;4.00;;;;;21.16;48.52;99441.99;113113;1242;19320;-69
2022/01/17 06:25:44;;;;;;;;;4.00;2.00;;;;;21.18;48.28;99450.64;113084;1242;18270;-69
2022/01/17 06:28:10;;;;;;;;;4.00;4.00;;;;;21.19;48.36;99490.55;112945;1241;18593;-69
2022/01/17 06:30:36;;;;;;;;;2.00;2.00;;;;;21.19;48.28;99494.65;112984;1241;19217;-70
2022/01/17 06:33:03;;;;;;;;;2.00;2.00;;;;;21.22;48.19;99476.49;113024;1242;20091;-69
2022/01/17 06:35:29;;;;;;;;;2.00;2.00;;;;;21.24;48.18;99448.62;113034;1241;18904;-68
2022/01/17 06:37:55;;;;;;;;;2.00;2.00;;;;;21.26;48.29;99465.38;113251;1242;19592;-68
2022/01/17 06:40:21;;;;;;;;;2.00;2.00;;;;;21.26;49.02;99458.21;113105;1241;18236;-68
2022/01/17 06:42:46;;;;;;;;;2.00;2.00;;;;;21.28;48.73;99459.52;113058;1242;18481;-68
2022/01/17 06:45:14;;;;;;;;;4.00;4.00;;;;;21.30;48.47;99433.22;113004;1242;19356;-69
2022/01/17 06:47:40;;;;;;;;;4.00;4.00;;;;;21.33;48.91;99427.71;113079;1241;19111;-69
2022/01/17 06:50:06;;;;;;;;;3.00;3.00;;;;;21.35;49.52;99440.97;113136;1242;19109;-69
2022/01/17 06:52:32;;;;;;;;;5.00;4.00;;;;;21.35;49.56;99432.38;113103;1242;19485;-69
2022/01/17 06:54:58;;;;;;;;;4.00;4.00;;;;;21.34;49.49;99402.17;113100;1242;18295;-68
2022/01/17 06:57:24;;;;;;;;;3.00;3.00;;;;;21.29;49.24;99400.59;113066;1242;20444;-68
2022/01/17 06:59:50;;;;;;;;;2.67;2.67;;;;;21.33;49.22;99412.86;113060;1241;19902;-69
2022/01/17 07:02:16;;;;;;;;;5.33;5.00;;;;;21.32;49.46;99404.90;113022;1242;18429;-69
2022/01/17 07:04:42;;;;;;;;;4.00;3.00;;;;;21.29;49.47;99400.64;113018;1242;22928;-69
2022/01/17 07:07:08;;;;;;;;;5.00;4.00;;;;;21.36;50.31;99421.55;113027;1241;20036;-68
2022/01/17 07:09:36;;;;;;;;;4.00;4.00;;;;;21.40;50.34;99448.38;113038;1242;20662;-70
2022/01/17 07:12:02;;;;;;;;;4.00;4.00;;;;;21.43;50.29;99453.73;113033;1242;21523;-69
2022/01/17 07:14:27;;;;;;;;;4.00;4.00;;;;;21.44;50.26;99450.59;112978;1241;19765;-70
2022/01/17 07:16:53;;;;;;;;;5.00;4.00;;;;;21.46;50.25;99461.91;113044;1241;19404;-69
2022/01/17 07:19:19;;;;;;;;;5.00;4.00;;;;;21.48;50.47;99479.62;113027;1242;18497;-70
2022/01/17 07:21:45;;;;;;;;;5.00;5.00;;;;;21.48;50.54;99476.88;113014;1242;20063;-68
2022/01/17 07:24:11;;;;;;;;;7.50;6.00;;;;;21.46;50.94;99440.09;112974;1242;18197;-68
2022/01/17 07:26:37;;;;;;;;;6.00;6.00;;;;;21.48;51.05;99405.30;114055;1242;18478;-70
2022/01/17 07:29:05;;;;;;;;;13.00;8.00;;;;;21.48;51.01;99391.30;114113;1241;19841;-71
2022/01/17 07:31:31;;;;;;;;;4.67;4.67;;;;;21.50;51.25;99388.42;114111;1241;19004;-70
2022/01/17 07:33:57;;;;;;;;;8.00;6.00;;;;;21.52;51.13;99379.63;114101;1241;19158;-72
2022/01/17 07:36:23;;;;;;;;;8.50;8.00;;;;;21.53;51.12;99368.00;113928;1242;19209;-72
2022/01/17 07:38:48;;;;;;;;;14.00;12.00;;;;;21.53;51.08;99368.76;112919;1242;20224;-71
2022/01/17 07:41:14;;;;;;;;;30.00;25.00;;;;;21.58;51.13;99382.99;113019;1242;18550;-68
2022/01/17 07:43:41;;;;;;;;;27.00;22.00;;;;;21.54;50.98;99368.34;113087;1241;19195;-72
2022/01/17 07:46:17;;;;;;;;;26.00;22.00;;;;;21.46;50.96;99360.89;113030;1241;19945;-72
2022/01/17 07:49:09;;;;;;;;;24.00;21.00;;;;;21.46;50.75;99363.52;113052;1242;18731;-71
2022/01/17 07:51:35;;;;;;;;;23.67;22.00;;;;;21.47;50.58;99356.23;113061;1241;19321;-71
2022/01/17 07:54:01;;;;;;;;;28.00;21.50;;;;;21.50;50.44;99356.52;113098;1241;22024;-72
2022/01/17 07:56:27;;;;;;;;;28.00;22.00;;;;;21.51;50.55;99367.11;113088;1242;18685;-70
2022/01/17 07:58:53;;;;;;;;;28.00;25.00;;;;;21.51;50.65;99435.94;113049;1241;20772;-65
2022/01/17 08:01:19;;;;;;;;;29.00;24.00;;;;;21.53;50.69;99529.10;112960;1242;19738;-74
2022/01/17 08:03:45;;;;;;;;;29.33;23.67;;;;;21.54;50.48;99564.33;113058;1242;18714;-72
2022/01/17 08:06:11;;;;;;;;;21.50;20.50;;;;;21.57;50.82;99596.65;113138;1241;19173;-72
2022/01/17 08:08:37;;;;;;;;;29.50;25.00;;;;;21.58;50.66;99613.20;113067;1241;19982;-72
2022/01/17 08:11:03;;;;;;;;;31.00;27.00;;;;;21.58;50.37;99625.48;113003;1242;18526;-70
2022/01/17 08:13:29;;;;;;;;;28.00;24.00;;;;;21.55;50.35;99640.23;113090;1242;19813;-69
2022/01/17 08:15:55;;;;;;;;;28.50;25.00;;;;;21.55;50.59;99663.65;113081;1242;18377;-69
2022/01/17 08:18:21;;;;;;;;;28.00;25.33;;;;;21.51;50.72;99655.67;113024;1241;18832;-68
2022/01/17 08:20:48;;;;;;;;;28.00;24.67;;;;;21.50;50.49;99650.55;113037;1242;19416;-73
2022/01/17 08:23:13;;;;;;;;;22.00;21.00;;;;;21.51;50.44;99662.20;113057;1242;19207;-71
2022/01/17 08:25:39;;;;;;;;;24.00;22.00;;;;;21.52;50.65;99691.58;113035;1241;18800;-70
2022/01/17 08:28:05;;;;;;;;;28.50;24.00;;;;;21.53;50.70;99699.77;113067;1242;19966;-70
2022/01/17 08:30:32;;;;;;;;;24.50;20.00;;;;;21.56;51.10;99726.02;113095;1242;18403;-70
2022/01/17 08:32:58;;;;;;;;;22.67;18.67;;;;;21.59;51.57;99724.61;113027;1241;18801;-71
2022/01/17 08:35:24;;;;;;;;;24.00;18.00;;;;;21.59;50.92;99728.21;113040;1242;19360;-71
2022/01/17 08:37:50;;;;;;;;;23.00;18.00;;;;;21.58;51.34;99723.96;113055;1242;18664;-69
2022/01/17 08:40:15;;;;;;;;;24.50;20.50;;;;;21.55;51.92;99744.30;113092;1242;18674;-68
2022/01/17 08:42:41;;;;;;;;;19.00;18.00;;;;;21.56;52.13;99748.96;113069;1242;20089;-69
2022/01/17 08:45:07;;;;;;;;;20.00;20.00;;;;;21.60;51.94;99750.48;113014;1241;21043;-75
2022/01/17 08:47:33;;;;;;;;;21.00;20.50;;;;;21.64;51.96;99731.61;113030;1242;18547;-75
2022/01/17 08:49:59;;;;;;;;;22.00;20.00;;;;;21.65;51.62;99727.39;113039;1242;19259;-74
2022/01/17 08:52:25;;;;;;;;;21.50;19.00;;;;;21.65;51.51;99731.08;113021;1241;22704;-75
2022/01/17 08:54:51;;;;;;;;;20.50;20.50;;;;;21.64;51.68;99721.41;112959;1242;20187;-72
2022/01/17 08:57:17;;;;;;;;;24.67;23.67;;;;;21.62;51.73;99727.11;113027;1242;19800;-69
2022/01/17 08:59:43;;;;;;;;;24.67;23.00;;;;;21.63;51.44;99725.56;113058;1242;18518;-75
2022/01/17 09:02:09;;;;;;;;;25.00;20.67;;;;;21.64;51.41;99720.52;113021;1242;18886;-72
2022/01/17 09:04:40;;;;;;;;;37.00;32.50;;;;;21.66;51.41;99732.26;113054;1242;19035;-70
2022/01/17 09:07:06;;;;;;;;;37.00;32.00;;;;;21.64;51.44;99731.06;112986;1241;18694;-70
2022/01/17 09:09:32;;;;;;;;;34.00;31.50;;;;;21.61;51.59;99733.92;113004;1241;18562;-70
2022/01/17 09:11:58;;;;;;;;;68.33;51.33;;;;;21.60;51.48;99749.65;112989;1242;19456;-71
2022/01/17 09:14:24;;;;;;;;;67.67;53.33;;;;;21.64;51.50;99746.80;112836;1242;22463;-72
2022/01/17 09:16:49;;;;;;;;;88.33;66.67;;;;;21.64;51.56;99747.73;112970;1241;18670;-72
2022/01/17 09:19:15;;;;;;;;;103.00;73.33;;;;;21.65;51.64;99750.84;113032;1242;19232;-69
2022/01/17 09:21:41;;;;;;;;;95.00;66.67;;;;;21.65;51.69;99755.83;113011;1242;18354;-70
2022/01/17 09:24:07;;;;;;;;;135.00;101.67;;;;;21.62;51.44;99779.85;112947;1241;21739;-73
2022/01/17 09:26:33;;;;;;;;;138.33;102.00;;;;;21.60;51.52;99811.20;112983;1242;19420;-70
2022/01/17 09:28:59;;;;;;;;;133.00;102.67;;;;;21.57;51.34;99817.67;113016;1242;22548;-72
2022/01/17 09:31:25;;;;;;;;;120.33;95.00;;;;;21.57;51.15;99808.77;112990;1242;18872;-71
2022/01/17 09:33:51;;;;;;;;;102.67;83.00;;;;;21.57;51.11;99804.45;113005;1242;23294;-70
2022/01/17 09:36:17;;;;;;;;;105.33;79.00;;;;;21.58;50.99;99803.09;112982;1241;19429;-72
2022/01/17 09:38:43;;;;;;;;;96.67;76.00;;;;;21.63;51.17;99801.87;112980;1241;22246;-69
2022/01/17 09:41:09;;;;;;;;;100.00;75.00;;;;;21.66;51.15;99824.59;112944;1242;19170;-69
2022/01/17 09:43:35;;;;;;;;;97.00;71.67;;;;;21.67;51.35;99826.44;112826;1242;18719;-73
2022/01/17 09:46:01;;;;;;;;;94.67;70.33;;;;;21.65;51.43;99836.73;113007;1242;22268;-70
2022/01/17 09:48:35;;;;;;;;;93.00;68.00;;;;;21.69;51.34;99847.30;112897;1242;19228;-68
2022/01/17 09:51:03;;;;;;;;;88.67;67.00;;;;;21.66;50.34;99860.17;112950;1241;21609;-68
2022/01/17 09:53:29;;;;;;;;;78.33;57.00;;;;;21.57;49.65;99876.08;112993;1242;20129;-69
2022/01/17 09:55:58;;;;;;;;;78.67;58.00;;;;;21.48;48.39;99871.80;112999;1242;19338;-69
2022/01/17 09:58:24;;;;;;;;;75.00;55.00;;;;;21.43;48.57;99860.16;112935;1241;18616;-74
2022/01/17 10:00:50;;;;;;;;;74.67;59.33;;;;;21.50;48.64;99858.09;113007;1240;22906;-74
2022/01/17 10:03:17;;;;;;;;;80.00;57.00;;;;;21.61;48.76;99857.63;112973;1241;19202;-73
2022/01/17 10:05:43;;;;;;;;;78.67;56.00;;;;;21.63;48.62;99857.13;113338;1242;20822;-74
2022/01/17 10:08:08;;;;;;;;;68.67;53.67;;;;;21.67;48.44;99850.06;113047;1242;18455;-74
2022/01/17 10:10:34;;;;;;;;;76.33;56.67;;;;;21.66;48.41;99854.55;113075;1241;20127;-74
2022/01/17 10:13:00;;;;;;;;;77.67;58.00;;;;;21.67;48.72;99870.74;113055;1242;22972;-68
2022/01/17 10:15:34;;;;;;;;;66.33;51.00;;;;;21.65;48.68;99889.57;113068;1242;19491;-68
2022/01/17 10:18:00;;;;;;;;;67.00;50.50;;;;;21.54;47.59;99896.28;113100;1242;21915;-71
2022/01/17 10:20:31;;;;;;;;;60.33;46.00;;;;;21.45;47.13;99911.70;113068;1241;18668;-68
2022/01/17 10:23:06;;;;;;;;;55.00;43.67;;;;;21.36;46.27;99915.80;113008;1242;19429;-70
2022/01/17 10:25:49;;;;;;;;;56.67;43.00;;;;;21.27;45.11;99916.89;113053;1242;19702;-68
2022/01/17 10:28:34;;;;;;;;;44.33;39.33;;;;;21.24;44.84;99916.84;113015;1241;20360;-68
2022/01/17 10:31:21;;;;;;;;;44.67;37.00;;;;;21.19;44.15;99931.02;113029;1241;20187;-68
2022/01/17 10:36:31;;;;;;;;;43.67;38.00;;;;;21.13;42.71;99934.36;113001;1241;18730;-68
2022/01/17 10:38:57;;;;;;;;;37.00;34.00;;;;;21.06;42.57;99937.38;113051;1242;20719;-70
2022/01/17 10:41:23;;;;;;;;;40.00;33.00;;;;;21.05;42.06;99938.64;113018;1241;19812;-69
2022/01/17 10:43:49;;;;;;;;;33.00;29.00;;;;;21.04;41.94;99940.42;113058;1242;19473;-69
2022/01/17 10:46:15;;;;;;;;;32.00;28.00;;;;;21.04;41.75;99939.87;113076;1242;18447;-69
2022/01/17 10:48:41;;;;;;;;;32.50;31.00;;;;;21.01;41.56;99954.95;113099;1242;19318;-68
2022/01/17 10:51:07;;;;;;;;;35.00;29.00;;;;;21.00;41.62;99961.83;113074;1241;18992;-69
2022/01/17 10:53:33;;;;;;;;;33.50;28.50;;;;;20.98;41.42;99951.18;113032;1242;20040;-69
2022/01/17 10:55:58;;;;;;;;;41.00;34.00;;;;;20.95;41.66;99959.63;113070;1241;19347;-70
2022/01/17 10:58:25;;;;;;;;;35.00;29.50;;;;;20.98;42.29;99966.27;113015;1242;18408;-68
2022/01/17 11:00:51;;;;;;;;;33.00;29.50;;;;;21.10;42.32;99960.63;113022;1242;20226;-70
2022/01/17 11:03:17;;;;;;;;;35.50;28.00;;;;;21.22;42.59;99974.60;113079;1242;19310;-70
2022/01/17 11:05:43;;;;;;;;;35.00;28.50;;;;;21.31;42.83;99977.86;113006;1242;18612;-70
2022/01/17 11:08:09;;;;;;;;;37.00;26.50;;;;;21.38;43.30;99977.25;113087;1241;19348;-68
2022/01/17 11:10:36;;;;;;;;;100.33;75.67;;;;;21.30;43.83;99990.31;113683;1242;20937;-68
2022/01/17 11:13:02;;;;;;;;;191.00;165.25;;;;;20.64;43.23;100008.22;114127;1241;20149;-69
2022/01/17 11:15:28;;;;;;;;;261.00;216.67;;;;;20.17;43.08;100006.05;113054;1242;19428;-69
2022/01/17 11:17:56;;;;;;;;;198.50;167.75;;;;;20.20;42.34;100020.70;113001;1242;19324;-70
2022/01/17 11:20:22;;;;;;;;;162.67;140.00;;;;;20.41;41.40;100025.41;112989;1241;19600;-68
2022/01/17 11:22:48;;;;;;;;;135.75;115.00;;;;;20.55;40.59;100032.77;113086;1242;19351;-69
2022/01/17 11:25:14;;;;;;;;;132.33;113.67;;;;;20.41;40.08;100044.65;113055;1242;21823;-68
2022/01/17 11:27:40;;;;;;;;;120.67;98.00;;;;;20.41;40.20;100046.69;113029;1242;20909;-70